UAE11N OJAI-OMDB
Flight info
| Callsign | UAE11N |
|---|---|
| Flight time | N/A |
| Altitude | 41000 |
| Route | KULDI N318 NEVOL Q255 LUDEP P559 VUTEB |
| Aircraft | A359/H-SDE2E3GHIJ3J4J5LM1ORWXY/LB1D1 |
Departure
| Time | N/A |
|---|---|
| Airport | Queen Alia International Airport (OJAI) |
Arrival
| Time | 2026-04-25 13:54 |
|---|---|
| Airport | Dubai International Airport (OMDB) |
| Time | Latitude | Longitude | Altitude | Speed | Heading |
|---|---|---|---|---|---|
| 2026-04-25 13:03 | 27.06308 | 49.62783 | 40950 ft | 572 kts | 93° |
| 2026-04-25 13:03 | 27.05864 | 49.71655 | 40950 ft | 572 kts | 93° |
| 2026-04-25 13:04 | 27.05412 | 49.80572 | 40947 ft | 572 kts | 93° |
| 2026-04-25 13:04 | 27.04953 | 49.89515 | 40945 ft | 572 kts | 93° |
| 2026-04-25 13:05 | 27.04495 | 49.98382 | 40934 ft | 572 kts | 93° |
| 2026-04-25 13:05 | 27.04432 | 50.07324 | 40946 ft | 570 kts | 87° |
| 2026-04-25 13:06 | 27.04642 | 50.16189 | 40941 ft | 570 kts | 87° |
| 2026-04-25 13:06 | 27.04809 | 50.25055 | 40944 ft | 570 kts | 88° |
| 2026-04-25 13:07 | 27.04801 | 50.33989 | 40943 ft | 570 kts | 95° |
| 2026-04-25 13:07 | 27.04191 | 50.38333 | 40944 ft | 568 kts | 106° |
| 2026-04-25 13:07 | 27.02971 | 50.42554 | 40942 ft | 566 kts | 113° |
| 2026-04-25 13:08 | 27.00031 | 50.50702 | 40938 ft | 565 kts | 116° |
| 2026-04-25 13:08 | 26.96915 | 50.58752 | 40935 ft | 565 kts | 116° |
| 2026-04-25 13:09 | 26.93778 | 50.66858 | 40939 ft | 565 kts | 116° |
| 2026-04-25 13:09 | 26.90682 | 50.74930 | 40933 ft | 564 kts | 116° |
| 2026-04-25 13:10 | 26.87588 | 50.83027 | 40936 ft | 564 kts | 116° |
| 2026-04-25 13:10 | 26.84512 | 50.91078 | 40935 ft | 564 kts | 115° |
| 2026-04-25 13:11 | 26.81429 | 50.99129 | 40927 ft | 564 kts | 115° |
| 2026-04-25 13:11 | 26.78344 | 51.07227 | 40932 ft | 563 kts | 115° |
| 2026-04-25 13:12 | 26.75422 | 51.15353 | 40927 ft | 565 kts | 111° |
| 2026-04-25 13:12 | 26.73264 | 51.22266 | 40923 ft | 565 kts | 110° |
| 2026-04-25 13:13 | 26.70273 | 51.31959 | 40936 ft | 565 kts | 111° |
| 2026-04-25 13:13 | 26.67656 | 51.40195 | 40921 ft | 564 kts | 111° |
| 2026-04-25 13:14 | 26.65005 | 51.48426 | 40932 ft | 564 kts | 111° |
| 2026-04-25 13:14 | 26.62346 | 51.56681 | 40893 ft | 564 kts | 111° |
| 2026-04-25 13:15 | 26.59693 | 51.64907 | 40919 ft | 563 kts | 111° |
| 2026-04-25 13:15 | 26.57033 | 51.73152 | 40919 ft | 563 kts | 111° |
| 2026-04-25 13:16 | 26.54384 | 51.81358 | 40916 ft | 563 kts | 111° |
| 2026-04-25 13:16 | 26.51721 | 51.89557 | 40920 ft | 561 kts | 111° |
| 2026-04-25 13:17 | 26.49004 | 51.97748 | 40913 ft | 561 kts | 112° |
| 2026-04-25 13:17 | 26.46285 | 52.05869 | 40918 ft | 561 kts | 112° |
| 2026-04-25 13:18 | 26.43555 | 52.14027 | 40919 ft | 560 kts | 112° |
| 2026-04-25 13:18 | 26.40850 | 52.22125 | 40916 ft | 559 kts | 112° |
| 2026-04-25 13:19 | 26.38118 | 52.30267 | 40915 ft | 559 kts | 112° |
| 2026-04-25 13:19 | 26.35844 | 52.37031 | 40915 ft | 558 kts | 111° |
| 2026-04-25 13:20 | 26.32484 | 52.46378 | 40916 ft | 557 kts | 115° |
| 2026-04-25 13:20 | 26.29364 | 52.54290 | 40914 ft | 557 kts | 115° |
| 2026-04-25 13:21 | 26.26273 | 52.62159 | 40914 ft | 556 kts | 115° |
| 2026-04-25 13:21 | 26.23227 | 52.70029 | 40907 ft | 555 kts | 114° |
| 2026-04-25 13:22 | 26.20188 | 52.77976 | 40912 ft | 556 kts | 114° |
| 2026-04-25 13:23 | 26.15659 | 52.89804 | 40907 ft | 554 kts | 114° |
| 2026-04-25 13:23 | 26.12621 | 52.97706 | 40906 ft | 554 kts | 114° |
| 2026-04-25 13:24 | 26.09581 | 53.05609 | 40900 ft | 554 kts | 114° |
| 2026-04-25 13:24 | 26.06657 | 53.13512 | 40719 ft | 553 kts | 113° |
| 2026-04-25 13:24 | 26.05234 | 53.17424 | 40598 ft | 543 kts | 113° |
| 2026-04-25 13:25 | 26.03820 | 53.21307 | 39949 ft | 543 kts | 113° |
| 2026-04-25 13:25 | 26.02381 | 53.25244 | 39033 ft | 551 kts | 113° |
| 2026-04-25 13:25 | 26.00925 | 53.29209 | 38255 ft | 555 kts | 113° |
| 2026-04-25 13:25 | 25.99460 | 53.33184 | 37521 ft | 554 kts | 114° |
| 2026-04-25 13:26 | 25.98014 | 53.37099 | 36849 ft | 553 kts | 114° |
| 2026-04-25 13:26 | 25.96553 | 53.41052 | 36152 ft | 551 kts | 115° |
| 2026-04-25 13:26 | 25.95092 | 53.44998 | 35455 ft | 550 kts | 115° |
| 2026-04-25 13:26 | 25.93636 | 53.48925 | 34802 ft | 547 kts | 116° |
| 2026-04-25 13:27 | 25.92217 | 53.52808 | 34139 ft | 545 kts | 116° |
| 2026-04-25 13:27 | 25.90847 | 53.56735 | 33426 ft | 542 kts | 115° |
| 2026-04-25 13:27 | 25.89509 | 53.60660 | 32626 ft | 541 kts | 115° |
| 2026-04-25 13:27 | 25.88202 | 53.64518 | 31962 ft | 537 kts | 114° |
| 2026-04-25 13:28 | 25.86884 | 53.68398 | 31338 ft | 532 kts | 114° |
| 2026-04-25 13:28 | 25.86442 | 53.69693 | 31133 ft | 531 kts | 114° |
| 2026-04-25 13:28 | 25.84286 | 53.75985 | 30131 ft | 524 kts | 114° |
| 2026-04-25 13:28 | 25.82978 | 53.79763 | 29451 ft | 519 kts | 114° |
| 2026-04-25 13:29 | 25.81682 | 53.83493 | 28851 ft | 514 kts | 114° |
| 2026-04-25 13:29 | 25.80411 | 53.87140 | 28246 ft | 508 kts | 114° |
| 2026-04-25 13:29 | 25.79142 | 53.90780 | 27664 ft | 503 kts | 114° |
| 2026-04-25 13:30 | 25.76635 | 53.97964 | 26472 ft | 494 kts | 114° |
| 2026-04-25 13:30 | 25.75390 | 54.01532 | 25868 ft | 490 kts | 114° |
| 2026-04-25 13:30 | 25.74226 | 54.05030 | 25267 ft | 487 kts | 112° |
| 2026-04-25 13:31 | 25.72236 | 54.11574 | 24159 ft | 482 kts | 110° |
| 2026-04-25 13:31 | 25.71204 | 54.15049 | 23543 ft | 480 kts | 110° |
| 2026-04-25 13:31 | 25.70156 | 54.18550 | 22980 ft | 473 kts | 111° |
| 2026-04-25 13:31 | 25.69123 | 54.21972 | 22676 ft | 461 kts | 111° |
| 2026-04-25 13:32 | 25.68108 | 54.25306 | 22272 ft | 447 kts | 111° |
| 2026-04-25 13:32 | 25.67115 | 54.28542 | 21569 ft | 441 kts | 111° |
| 2026-04-25 13:32 | 25.66138 | 54.31705 | 21093 ft | 435 kts | 111° |
| 2026-04-25 13:32 | 25.65158 | 54.34870 | 20622 ft | 429 kts | 111° |
| 2026-04-25 13:33 | 25.64191 | 54.37993 | 20121 ft | 424 kts | 111° |
| 2026-04-25 13:33 | 25.63234 | 54.41069 | 19655 ft | 419 kts | 111° |
| 2026-04-25 13:33 | 25.62289 | 54.44104 | 19171 ft | 414 kts | 111° |
| 2026-04-25 13:33 | 25.61984 | 54.45085 | 19023 ft | 412 kts | 111° |
| 2026-04-25 13:34 | 25.60441 | 54.50039 | 18235 ft | 404 kts | 111° |
| 2026-04-25 13:34 | 25.59526 | 54.52976 | 17676 ft | 400 kts | 111° |
| 2026-04-25 13:34 | 25.58640 | 54.55854 | 17067 ft | 397 kts | 110° |
| 2026-04-25 13:34 | 25.58117 | 54.58850 | 16315 ft | 391 kts | 96° |
| 2026-04-25 13:35 | 25.58215 | 54.61852 | 15223 ft | 389 kts | 85° |
| 2026-04-25 13:35 | 25.58547 | 54.64819 | 14193 ft | 384 kts | 83° |
| 2026-04-25 13:35 | 25.58906 | 54.67706 | 13609 ft | 372 kts | 83° |
| 2026-04-25 13:35 | 25.59255 | 54.70475 | 13336 ft | 361 kts | 83° |
| 2026-04-25 13:36 | 25.59598 | 54.73195 | 13103 ft | 349 kts | 83° |
| 2026-04-25 13:36 | 25.59925 | 54.75787 | 12878 ft | 337 kts | 83° |
| 2026-04-25 13:36 | 25.60243 | 54.78316 | 12683 ft | 326 kts | 83° |
| 2026-04-25 13:36 | 25.60552 | 54.80771 | 12490 ft | 315 kts | 83° |
| 2026-04-25 13:37 | 25.60850 | 54.83139 | 12322 ft | 305 kts | 83° |
| 2026-04-25 13:37 | 25.61090 | 54.85434 | 12077 ft | 296 kts | 89° |
| 2026-04-25 13:37 | 25.60758 | 54.87659 | 11739 ft | 290 kts | 111° |
| 2026-04-25 13:37 | 25.60009 | 54.89699 | 11449 ft | 287 kts | 115° |
| 2026-04-25 13:38 | 25.59200 | 54.91726 | 11206 ft | 287 kts | 115° |
| 2026-04-25 13:38 | 25.58394 | 54.93751 | 10973 ft | 286 kts | 115° |
| 2026-04-25 13:38 | 25.57593 | 54.95782 | 10800 ft | 286 kts | 115° |
| 2026-04-25 13:38 | 25.56809 | 54.97780 | 10629 ft | 286 kts | 115° |
| 2026-04-25 13:39 | 25.56014 | 54.99810 | 10473 ft | 285 kts | 115° |
| 2026-04-25 13:39 | 25.55232 | 55.01810 | 10318 ft | 285 kts | 115° |
| 2026-04-25 13:39 | 25.54389 | 55.03799 | 10138 ft | 284 kts | 119° |
| 2026-04-25 13:39 | 25.53426 | 55.05712 | 9990 ft | 283 kts | 121° |
| 2026-04-25 13:40 | 25.52444 | 55.07599 | 9819 ft | 282 kts | 121° |
| 2026-04-25 13:40 | 25.51467 | 55.09474 | 9641 ft | 282 kts | 121° |
| 2026-04-25 13:40 | 25.50490 | 55.11352 | 9473 ft | 281 kts | 121° |
| 2026-04-25 13:40 | 25.49525 | 55.13207 | 9312 ft | 281 kts | 121° |
| 2026-04-25 13:41 | 25.48552 | 55.15081 | 9160 ft | 280 kts | 121° |
| 2026-04-25 13:41 | 25.47589 | 55.16934 | 9052 ft | 280 kts | 121° |
| 2026-04-25 13:41 | 25.46617 | 55.18800 | 8953 ft | 279 kts | 121° |
| 2026-04-25 13:41 | 25.45504 | 55.20553 | 8852 ft | 277 kts | 131° |
| 2026-04-25 13:42 | 25.44228 | 55.22161 | 8744 ft | 275 kts | 134° |
| 2026-04-25 13:42 | 25.42955 | 55.23713 | 8654 ft | 275 kts | 134° |
| 2026-04-25 13:42 | 25.41666 | 55.25285 | 8552 ft | 275 kts | 134° |
| 2026-04-25 13:42 | 25.40819 | 55.26321 | 8472 ft | 274 kts | 134° |
| 2026-04-25 13:43 | 25.39121 | 55.28400 | 8300 ft | 274 kts | 133° |
| 2026-04-25 13:43 | 25.38272 | 55.29442 | 8223 ft | 273 kts | 134° |
| 2026-04-25 13:43 | 25.37013 | 55.30986 | 8073 ft | 263 kts | 134° |
| 2026-04-25 13:43 | 25.35320 | 55.32784 | 7999 ft | 249 kts | 148° |
| 2026-04-25 13:44 | 25.33830 | 55.33765 | 7712 ft | 248 kts | 154° |
| 2026-04-25 13:44 | 25.32821 | 55.34355 | 7525 ft | 247 kts | 154° |
| 2026-04-25 13:44 | 25.30805 | 55.35517 | 7122 ft | 245 kts | 154° |
| 2026-04-25 13:44 | 25.29787 | 55.36107 | 6921 ft | 244 kts | 154° |
| 2026-04-25 13:45 | 25.28298 | 55.36973 | 6612 ft | 244 kts | 154° |
| 2026-04-25 13:45 | 25.26803 | 55.37845 | 6324 ft | 243 kts | 154° |
| 2026-04-25 13:45 | 25.25301 | 55.38722 | 6069 ft | 242 kts | 154° |
| 2026-04-25 13:45 | 25.23806 | 55.39597 | 6023 ft | 243 kts | 154° |
| 2026-04-25 13:46 | 25.22316 | 55.40468 | 6008 ft | 244 kts | 154° |
| 2026-04-25 13:46 | 25.20819 | 55.41343 | 5818 ft | 243 kts | 155° |
| 2026-04-25 13:46 | 25.19316 | 55.42222 | 5586 ft | 243 kts | 154° |
| 2026-04-25 13:46 | 25.17828 | 55.43096 | 5343 ft | 242 kts | 154° |
| 2026-04-25 13:47 | 25.16357 | 55.43957 | 5102 ft | 242 kts | 155° |
| 2026-04-25 13:47 | 25.14868 | 55.44823 | 4980 ft | 242 kts | 154° |
| 2026-04-25 13:47 | 25.13383 | 55.45691 | 4865 ft | 241 kts | 154° |
| 2026-04-25 13:47 | 25.11914 | 55.46578 | 4741 ft | 243 kts | 150° |
| 2026-04-25 13:48 | 25.10690 | 55.47856 | 4627 ft | 243 kts | 127° |
| 2026-04-25 13:48 | 25.09763 | 55.49430 | 4502 ft | 244 kts | 122° |
| 2026-04-25 13:48 | 25.09206 | 55.51154 | 4168 ft | 242 kts | 93° |
| 2026-04-25 13:48 | 25.09492 | 55.52940 | 3877 ft | 235 kts | 62° |
| 2026-04-25 13:49 | 25.10313 | 55.54477 | 3610 ft | 230 kts | 51° |
| 2026-04-25 13:49 | 25.11506 | 55.55580 | 3282 ft | 223 kts | 20° |
| 2026-04-25 13:49 | 25.12998 | 55.55785 | 3002 ft | 215 kts | 348° |
| 2026-04-25 13:49 | 25.14368 | 55.55243 | 2759 ft | 211 kts | 333° |
| 2026-04-25 13:50 | 25.15504 | 55.54197 | 2383 ft | 214 kts | 310° |
| 2026-04-25 13:50 | 25.16336 | 55.52856 | 2110 ft | 213 kts | 302° |
| 2026-04-25 13:50 | 25.17041 | 55.51508 | 2034 ft | 189 kts | 301° |
| 2026-04-25 13:50 | 25.17633 | 55.50316 | 2010 ft | 164 kts | 300° |
| 2026-04-25 13:51 | 25.18167 | 55.49283 | 1955 ft | 148 kts | 302° |
| 2026-04-25 13:51 | 25.18693 | 55.48332 | 1790 ft | 142 kts | 304° |
| 2026-04-25 13:51 | 25.19194 | 55.47432 | 1614 ft | 135 kts | 304° |
| 2026-04-25 13:51 | 25.19679 | 55.46558 | 1436 ft | 132 kts | 304° |
| 2026-04-25 13:52 | 25.20160 | 55.45696 | 1280 ft | 132 kts | 303° |
| 2026-04-25 13:52 | 25.20633 | 55.44843 | 1102 ft | 131 kts | 302° |
| 2026-04-25 13:52 | 25.21107 | 55.43985 | 956 ft | 130 kts | 303° |
| 2026-04-25 13:52 | 25.21581 | 55.43135 | 809 ft | 130 kts | 303° |
| 2026-04-25 13:53 | 25.22051 | 55.42287 | 665 ft | 128 kts | 302° |
| 2026-04-25 13:53 | 25.22503 | 55.41445 | 510 ft | 128 kts | 303° |
| 2026-04-25 13:53 | 25.22968 | 55.40600 | 311 ft | 129 kts | 302° |
| 2026-04-25 13:53 | 25.23434 | 55.39765 | 115 ft | 126 kts | 302° |
| 2026-04-25 13:54 | 25.23880 | 55.38959 | 35 ft | 119 kts | 302° |
| 2026-04-25 13:54 | 25.24264 | 55.38273 | 33 ft | 88 kts | 302° |
| 2026-04-25 13:54 | 25.24520 | 55.37810 | 29 ft | 53 kts | 301° |
| 2026-04-25 13:54 | 25.24630 | 55.37590 | 29 ft | 22 kts | 305° |
| 2026-04-25 13:55 | 25.24716 | 55.37448 | 28 ft | 22 kts | 303° |
| 2026-04-25 13:55 | 25.24774 | 55.37288 | 30 ft | 23 kts | 281° |
| 2026-04-25 13:55 | 25.24784 | 55.37152 | 30 ft | 11 kts | 272° |
| 2026-04-25 13:55 | 25.24784 | 55.37138 | 30 ft | 0 kts | 272° |
| 2026-04-25 13:56 | 25.24785 | 55.37121 | 29 ft | 6 kts | 272° |
| 2026-04-25 13:56 | 25.24787 | 55.37062 | 29 ft | 10 kts | 272° |
| 2026-04-25 13:56 | 25.24793 | 55.36987 | 28 ft | 6 kts | 282° |
| 2026-04-25 13:56 | 25.24794 | 55.36986 | 28 ft | 0 kts | 282° |
| 2026-04-25 13:57 | 25.24794 | 55.36984 | 28 ft | 2 kts | 278° |
| 2026-04-25 13:57 | 25.24776 | 55.36960 | 28 ft | 4 kts | 213° |
| 2026-04-25 13:57 | 25.24770 | 55.36957 | 28 ft | 0 kts | 211° |
| 2026-04-25 13:58 | 25.24764 | 55.36953 | 28 ft | 4 kts | 211° |
| 2026-04-25 13:59 | 25.24726 | 55.36929 | 28 ft | 8 kts | 210° |
| 2026-04-25 13:59 | 25.24668 | 55.36892 | 28 ft | 11 kts | 211° |
| 2026-04-25 13:59 | 25.24595 | 55.36843 | 27 ft | 14 kts | 211° |
| 2026-04-25 13:59 | 25.24505 | 55.36782 | 27 ft | 16 kts | 211° |
| 2026-04-25 14:00 | 25.24440 | 55.36736 | 27 ft | 18 kts | 219° |
| 2026-04-25 14:00 | 25.24372 | 55.36592 | 27 ft | 12 kts | 262° |
| 2026-04-25 14:00 | 25.24382 | 55.36491 | 27 ft | 14 kts | 286° |
| 2026-04-25 14:00 | 25.24431 | 55.36385 | 27 ft | 17 kts | 302° |
| 2026-04-25 14:01 | 25.24492 | 55.36278 | 27 ft | 16 kts | 302° |
| 2026-04-25 14:01 | 25.24548 | 55.36180 | 27 ft | 14 kts | 301° |
| 2026-04-25 14:01 | 25.24595 | 55.36095 | 27 ft | 12 kts | 301° |
| 2026-04-25 14:01 | 25.24635 | 55.36023 | 27 ft | 10 kts | 301° |
| 2026-04-25 14:02 | 25.24669 | 55.35962 | 27 ft | 8 kts | 301° |
| 2026-04-25 14:02 | 25.24698 | 55.35910 | 27 ft | 9 kts | 302° |
| 2026-04-25 14:02 | 25.24740 | 55.35835 | 27 ft | 12 kts | 301° |
| 2026-04-25 14:02 | 25.24769 | 55.35784 | 27 ft | 12 kts | 302° |
| 2026-04-25 14:03 | 25.24825 | 55.35688 | 27 ft | 10 kts | 306° |
| 2026-04-25 14:03 | 25.24869 | 55.35622 | 27 ft | 10 kts | 306° |
| 2026-04-25 14:03 | 25.24906 | 55.35566 | 27 ft | 8 kts | 306° |
| 2026-04-25 14:03 | 25.24939 | 55.35507 | 27 ft | 13 kts | 301° |
| 2026-04-25 14:04 | 25.24982 | 55.35431 | 27 ft | 11 kts | 302° |
| 2026-04-25 14:04 | 25.25018 | 55.35368 | 27 ft | 9 kts | 302° |
| 2026-04-25 14:04 | 25.25047 | 55.35316 | 27 ft | 7 kts | 302° |
| 2026-04-25 14:04 | 25.25070 | 55.35276 | 27 ft | 5 kts | 302° |
| 2026-04-25 14:05 | 25.25102 | 55.35256 | 27 ft | 6 kts | 359° |
| 2026-04-25 14:05 | 25.25139 | 55.35270 | 27 ft | 8 kts | 27° |
| 2026-04-25 14:05 | 25.25184 | 55.35302 | 27 ft | 7 kts | 31° |
| 2026-04-25 14:05 | 25.25212 | 55.35320 | 27 ft | 2 kts | 31° |
| 2026-04-25 14:06 | 25.25216 | 55.35323 | 27 ft | 0 kts | 31° |
| 2026-04-25 14:06 | 25.25219 | 55.35325 | 27 ft | 0 kts | 31° |